Time;durP1;ratioP1;P1;durP2;ratioP2;P2;SDS_P1;SDS_P2;PMS_P1;PMS_P2;Temp;Humidity;BMP_temperature;BMP_pressure;BME280_temperature;BME280_humidity;BME280_pressure;Samples;Min_cycle;Max_cycle;Signal;HPM_P1;HPM_P2
2023/06/21 00:01:15;;;;;;;;;;;;;;;27.57;45.43;101181.69;5088245;28;19920;-80
2023/06/21 00:03:40;;;;;;;;;;;;;;;27.53;45.58;101183.56;5092268;28;19923;-80
2023/06/21 00:06:05;;;;;;;;;;;;;;;27.50;45.58;101178.75;5086077;28;19927;-80
2023/06/21 00:08:32;;;;;;;;;;;;;;;27.45;45.26;101174.28;5085861;28;19962;-80
2023/06/21 00:10:58;;;;;;;;;;;;;;;27.43;45.27;101178.56;5085059;28;20136;-80
2023/06/21 00:13:23;;;;;;;;;;;;;;;27.39;45.38;101178.47;5087632;28;20296;-79
2023/06/21 00:15:50;;;;;;;;;;;;;;;27.34;45.50;101176.78;5084029;28;20395;-79
2023/06/21 00:18:15;;;;;;;;;;;;;;;27.31;45.45;101171.97;5085707;28;19915;-80
2023/06/21 00:20:41;;;;;;;;;;;;;;;27.26;45.61;101174.16;5087783;28;20344;-79
2023/06/21 00:23:08;;;;;;;;;;;;;;;27.22;45.64;101157.56;5084746;28;19916;-80
2023/06/21 00:25:34;;;;;;;;;;;;;;;27.20;45.70;101154.34;5089944;28;19916;-79
2023/06/21 00:27:59;;;;;;;;;;;;;;;27.18;45.58;101161.38;5087222;28;19931;-80
2023/06/21 00:30:24;;;;;;;;;;;;;;;27.15;45.61;101162.06;5091551;28;19920;-80
2023/06/21 00:32:49;;;;;;;;;;;;;;;27.09;45.60;101148.53;5086150;28;19931;-80
2023/06/21 00:35:15;;;;;;;;;;;;;;;27.02;45.89;101148.34;5086075;28;20003;-80
2023/06/21 00:37:40;;;;;;;;;;;;;;;26.98;45.89;101135.63;5086680;28;20464;-79
2023/06/21 00:40:10;;;;;;;;;;;;;;;26.93;45.86;101122.94;5088240;28;19920;-80
2023/06/21 00:42:35;;;;;;;;;;;;;;;26.90;45.90;101123.63;5092174;28;19916;-80
2023/06/21 00:45:00;;;;;;;;;;;;;;;26.90;45.83;101128.31;5086032;28;19923;-80
2023/06/21 00:47:26;;;;;;;;;;;;;;;26.91;45.89;101146.41;5087949;28;19969;-80
2023/06/21 00:49:51;;;;;;;;;;;;;;;26.97;45.69;101147.78;5089014;28;19923;-80
2023/06/21 00:52:17;;;;;;;;;;;;;;;27.00;45.75;101158.13;5086021;28;20392;-80
2023/06/21 00:54:43;;;;;;;;;;;;;;;27.01;45.38;101156.97;5085337;28;19997;-80
2023/06/21 00:57:11;;;;;;;;;;;;;;;27.01;45.77;101154.22;5082673;28;19966;-80
2023/06/21 00:59:36;;;;;;;;;;;;;;;27.00;45.72;101158.13;5086094;28;19920;-80
2023/06/21 01:02:02;;;;;;;;;;;;;;;26.96;45.94;101157.19;5084470;28;20300;-80
2023/06/21 01:04:29;;;;;;;;;;;;;;;26.89;45.94;101160.50;5086549;28;19940;-80
2023/06/21 01:07:17;;;;;;;;;;;;;;;26.84;45.98;101171.75;5082953;28;19998;-80
2023/06/21 01:10:01;;;;;;;;;;;;;;;26.78;46.07;101165.72;5082893;28;19916;-80
2023/06/21 01:12:26;;;;;;;;;;;;;;;26.70;46.08;101155.63;5088960;28;20404;-80
2023/06/21 01:15:03;;;;;;;;;;;;;;;26.66;46.17;101162.19;5085553;28;19920;-79
2023/06/21 01:17:31;;;;;;;;;;;;;;;26.62;46.23;101162.09;5086331;28;19928;-80
2023/06/21 01:19:56;;;;;;;;;;;;;;;26.58;46.22;101158.44;5060392;28;21139;-80
2023/06/21 01:22:22;;;;;;;;;;;;;;;26.58;46.21;101150.19;5084443;28;20548;-80
2023/06/21 01:25:06;;;;;;;;;;;;;;;26.55;46.07;101150.84;5083585;28;19916;-80
2023/06/21 01:27:58;;;;;;;;;;;;;;;26.51;46.25;101147.19;5084070;28;19928;-80
2023/06/21 01:30:25;;;;;;;;;;;;;;;26.49;46.08;101141.25;5079982;28;19970;-80
2023/06/21 01:32:53;;;;;;;;;;;;;;;26.47;46.00;101143.56;5082588;28;19970;-80
2023/06/21 01:35:20;;;;;;;;;;;;;;;26.42;46.21;101141.06;5085139;28;20006;-80
2023/06/21 01:37:48;;;;;;;;;;;;;;;26.38;46.31;101140.13;5085322;28;20054;-81
2023/06/21 01:40:15;;;;;;;;;;;;;;;26.35;46.21;101135.31;5085496;28;20308;-80
2023/06/21 01:42:40;;;;;;;;;;;;;;;26.31;46.31;101129.69;5086087;28;19972;-80
2023/06/21 01:45:06;;;;;;;;;;;;;;;26.28;46.27;101135.06;5084251;28;20322;-80
2023/06/21 01:47:32;;;;;;;;;;;;;;;26.24;46.41;101131.44;5087279;28;20015;-80
2023/06/21 01:49:58;;;;;;;;;;;;;;;26.22;46.38;101120.00;5084621;28;19981;-80
2023/06/21 01:52:24;;;;;;;;;;;;;;;26.20;46.34;101120.31;5088619;28;19916;-80
2023/06/21 01:54:50;;;;;;;;;;;;;;;26.16;46.55;101120.19;5069858;28;19973;-80
2023/06/21 01:57:17;;;;;;;;;;;;;;;26.13;46.52;101117.34;5085746;28;20007;-80
2023/06/21 01:59:42;;;;;;;;;;;;;;;26.08;46.58;101118.38;5082851;28;19924;-80
2023/06/21 02:02:08;;;;;;;;;;;;;;;26.04;46.67;101109.25;5084984;28;19920;-81
2023/06/21 02:04:33;;;;;;;;;;;;;;;26.00;46.67;101113.78;5084956;28;19970;-80
2023/06/21 02:07:02;;;;;;;;;;;;;;;25.92;47.02;101098.25;5087054;28;19919;-80
2023/06/21 02:09:27;;;;;;;;;;;;;;;25.90;46.69;101103.28;5085554;28;19948;-80
2023/06/21 02:11:52;;;;;;;;;;;;;;;25.88;47.04;101100.09;5083675;28;20764;-80
2023/06/21 02:14:18;;;;;;;;;;;;;;;25.88;46.92;101105.56;5084043;28;20573;-80
2023/06/21 02:16:43;;;;;;;;;;;;;;;25.90;46.93;101103.28;5085559;28;19918;-80
2023/06/21 02:19:09;;;;;;;;;;;;;;;25.94;46.91;101106.16;5084676;28;19920;-80
2023/06/21 02:21:37;;;;;;;;;;;;;;;25.97;46.73;101119.19;5086921;28;19951;-80
2023/06/21 02:24:02;;;;;;;;;;;;;;;25.97;46.80;101114.50;5081528;28;19923;-80
2023/06/21 02:26:28;;;;;;;;;;;;;;;25.98;46.70;101120.78;5084375;28;19920;-80
2023/06/21 02:28:53;;;;;;;;;;;;;;;25.96;46.73;101118.38;5080952;28;19920;-80
2023/06/21 02:31:19;;;;;;;;;;;;;;;25.93;46.84;101116.31;5069648;28;20858;-80
2023/06/21 02:33:45;;;;;;;;;;;;;;;25.88;47.05;101122.03;5085132;28;19951;-80
2023/06/21 02:36:10;;;;;;;;;;;;;;;25.84;47.26;101132.09;5081541;28;19947;-81
2023/06/21 02:38:35;;;;;;;;;;;;;;;25.85;47.39;101145.50;5081261;28;19959;-80
2023/06/21 02:41:01;;;;;;;;;;;;;;;25.87;47.37;101153.38;5081470;28;20302;-80
2023/06/21 02:43:26;;;;;;;;;;;;;;;25.94;47.36;101158.31;5082631;28;19917;-80
2023/06/21 02:45:52;;;;;;;;;;;;;;;25.98;47.03;101160.00;5084220;28;19976;-80
2023/06/21 02:48:17;;;;;;;;;;;;;;;25.98;47.08;101148.22;5080449;28;19973;-80
2023/06/21 02:50:43;;;;;;;;;;;;;;;25.96;46.91;101150.53;5081958;28;19916;-80
2023/06/21 02:53:08;;;;;;;;;;;;;;;25.90;46.87;101149.94;5084955;28;20280;-80
2023/06/21 02:55:33;;;;;;;;;;;;;;;25.86;46.98;101147.09;5081702;28;19951;-80
2023/06/21 02:57:58;;;;;;;;;;;;;;;25.80;47.04;101142.16;5081767;28;19928;-80
2023/06/21 03:00:28;;;;;;;;;;;;;;;25.78;47.17;101144.44;5081313;28;19916;-80
2023/06/21 03:02:59;;;;;;;;;;;;;;;25.76;47.18;101142.03;5081607;28;19920;-80
2023/06/21 03:05:25;;;;;;;;;;;;;;;25.79;47.28;101140.56;5081032;28;19916;-80
2023/06/21 03:07:50;;;;;;;;;;;;;;;25.78;47.28;101138.94;5077802;28;19924;-80
2023/06/21 03:10:15;;;;;;;;;;;;;;;25.79;47.22;101129.56;5078726;28;19916;-80
2023/06/21 03:12:41;;;;;;;;;;;;;;;25.79;47.38;101135.88;5079919;28;19966;-80
2023/06/21 03:15:07;;;;;;;;;;;;;;;25.81;47.58;101132.78;5082817;28;19922;-80
2023/06/21 03:17:33;;;;;;;;;;;;;;;25.82;47.61;101124.19;5080500;28;20006;-80
2023/06/21 03:19:58;;;;;;;;;;;;;;;25.86;47.51;101130.63;5083470;28;20003;-80
2023/06/21 03:22:23;;;;;;;;;;;;;;;25.93;47.49;101138.28;5082027;28;20412;-80
2023/06/21 03:24:49;;;;;;;;;;;;;;;25.95;47.65;101144.22;5084974;28;19916;-81
2023/06/21 03:27:14;;;;;;;;;;;;;;;25.99;47.54;101141.59;5084335;28;19927;-80
2023/06/21 03:29:39;;;;;;;;;;;;;;;26.03;47.55;101137.84;5086035;28;20448;-80
2023/06/21 03:32:04;;;;;;;;;;;;;;;26.07;47.63;101136.00;5084577;28;19923;-80
2023/06/21 03:34:30;;;;;;;;;;;;;;;26.14;47.60;101138.97;5084096;28;19923;-81
2023/06/21 03:36:55;;;;;;;;;;;;;;;26.22;47.97;101147.44;5083855;28;20392;-80
2023/06/21 03:39:20;;;;;;;;;;;;;;;26.27;47.89;101161.75;5086582;28;20045;-80
2023/06/21 03:41:46;;;;;;;;;;;;;;;26.35;47.94;101168.28;5082518;28;19916;-80
2023/06/21 03:44:11;;;;;;;;;;;;;;;26.32;48.10;101168.94;5085113;28;19977;-80
2023/06/21 03:46:36;;;;;;;;;;;;;;;26.32;48.11;101171.69;5082636;28;19920;-80
2023/06/21 03:49:02;;;;;;;;;;;;;;;26.34;48.24;101180.38;5082520;28;20533;-80
2023/06/21 03:51:27;;;;;;;;;;;;;;;26.33;48.31;101176.84;5082986;28;19968;-80
2023/06/21 03:53:52;;;;;;;;;;;;;;;26.35;48.63;101190.25;5083461;28;20012;-80
2023/06/21 03:56:18;;;;;;;;;;;;;;;26.39;48.30;101203.00;5064840;28;20093;-80
2023/06/21 03:58:43;;;;;;;;;;;;;;;26.42;48.41;101228.97;5083242;28;20343;-79
2023/06/21 04:01:08;;;;;;;;;;;;;;;26.40;48.27;101242.25;5083198;28;20407;-79
2023/06/21 04:03:33;;;;;;;;;;;;;;;26.42;48.33;101213.28;5084110;28;20015;-79
2023/06/21 04:05:59;;;;;;;;;;;;;;;26.47;48.32;101212.25;5066884;28;19927;-79
2023/06/21 04:08:24;;;;;;;;;;;;;;;26.54;48.48;101225.41;5081238;28;19931;-80
2023/06/21 04:10:49;;;;;;;;;;;;;;;26.60;48.37;101227.59;5080615;28;20076;-79
2023/06/21 04:13:15;;;;;;;;;;;;;;;26.66;48.44;101206.16;5087800;28;19916;-79
2023/06/21 04:15:40;;;;;;;;;;;;;;;26.72;48.30;101216.56;5087940;28;19917;-79
2023/06/21 04:18:05;;;;;;;;;;;;;;;26.78;48.16;101209.69;5085952;28;19948;-80
2023/06/21 04:20:31;;;;;;;;;;;;;;;26.82;48.04;101220.78;5083921;28;20272;-79
2023/06/21 04:22:57;;;;;;;;;;;;;;;26.86;48.10;101232.69;5080249;28;19959;-79
2023/06/21 04:25:22;;;;;;;;;;;;;;;26.88;48.24;101235.91;5081867;28;19946;-79
2023/06/21 04:27:48;;;;;;;;;;;;;;;26.91;48.21;101232.44;5082614;28;19978;-79
2023/06/21 04:30:14;;;;;;;;;;;;;;;26.92;48.00;101233.25;5085288;28;19927;-79
2023/06/21 04:32:45;;;;;;;;;;;;;;;26.93;48.13;101227.44;5085575;28;19988;-79
2023/06/21 04:35:16;;;;;;;;;;;;;;;26.94;48.25;101223.53;5084277;28;19942;-79
2023/06/21 04:37:45;;;;;;;;;;;;;;;26.96;48.38;101218.47;5084085;28;19916;-79
2023/06/21 04:40:17;;;;;;;;;;;;;;;26.97;48.35;101222.81;5083917;28;20537;-79
2023/06/21 04:42:44;;;;;;;;;;;;;;;26.99;48.50;101226.03;5081318;28;19917;-79
2023/06/21 04:45:10;;;;;;;;;;;;;;;27.01;48.46;101229.25;5082877;28;20044;-79
2023/06/21 04:47:37;;;;;;;;;;;;;;;27.04;48.36;101225.00;5084022;28;20030;-79
2023/06/21 04:50:03;;;;;;;;;;;;;;;27.07;48.52;101225.09;5084453;28;20353;-79
2023/06/21 04:52:28;;;;;;;;;;;;;;;27.10;48.60;101210.66;5087688;28;20062;-79
2023/06/21 04:54:59;;;;;;;;;;;;;;;27.13;48.48;101214.69;5082614;28;19996;-79
2023/06/21 04:57:24;;;;;;;;;;;;;;;27.17;48.55;101203.78;5083988;28;19919;-79
2023/06/21 04:59:49;;;;;;;;;;;;;;;27.21;48.57;101213.72;5082180;28;19924;-79
2023/06/21 05:02:15;;;;;;;;;;;;;;;27.27;48.61;101209.56;5086726;28;19920;-79
2023/06/21 05:04:40;;;;;;;;;;;;;;;27.31;48.65;101210.50;5082311;28;19964;-79
2023/06/21 05:07:05;;;;;;;;;;;;;;;27.35;48.51;101202.31;5083777;28;20306;-81
2023/06/21 05:09:31;;;;;;;;;;;;;;;27.36;48.70;101196.47;5069709;28;20321;-79
2023/06/21 05:11:56;;;;;;;;;;;;;;;27.40;48.62;101193.81;5072287;28;19923;-79
2023/06/21 05:14:21;;;;;;;;;;;;;;;27.46;48.54;101194.34;5085862;28;19916;-79
2023/06/21 05:16:47;;;;;;;;;;;;;;;27.51;48.55;101189.41;5086170;28;19920;-79
2023/06/21 05:19:12;;;;;;;;;;;;;;;27.53;48.76;101194.56;5082362;28;20815;-79
2023/06/21 05:21:37;;;;;;;;;;;;;;;27.57;48.79;101189.94;5083323;28;19965;-79
2023/06/21 05:24:03;;;;;;;;;;;;;;;27.61;48.68;101185.34;5081396;28;19927;-79
2023/06/21 05:26:28;;;;;;;;;;;;;;;27.63;48.98;101180.31;5082126;28;19919;-79
2023/06/21 05:28:54;;;;;;;;;;;;;;;27.66;48.93;101185.91;5061479;28;19924;-79
2023/06/21 05:31:19;;;;;;;;;;;;;;;27.71;48.88;101186.81;5079689;28;19916;-79
2023/06/21 05:33:44;;;;;;;;;;;;;;;27.75;48.66;101188.50;5079383;28;20442;-79
2023/06/21 05:36:10;;;;;;;;;;;;;;;27.79;48.74;101191.34;5083683;28;19916;-79
2023/06/21 05:38:35;;;;;;;;;;;;;;;27.81;48.73;101195.31;5078366;28;19920;-79
2023/06/21 05:41:00;;;;;;;;;;;;;;;27.80;48.62;101184.66;5085352;28;20376;-79
2023/06/21 05:43:25;;;;;;;;;;;;;;;27.76;48.64;101192.84;5082196;28;19923;-78
2023/06/21 05:45:51;;;;;;;;;;;;;;;27.76;49.02;101187.34;5084150;28;19924;-79
2023/06/21 05:48:17;;;;;;;;;;;;;;;27.81;49.02;101178.81;5081690;28;19920;-79
2023/06/21 05:50:43;;;;;;;;;;;;;;;27.86;48.93;101186.81;5081120;28;19916;-79
2023/06/21 05:53:08;;;;;;;;;;;;;;;27.90;48.84;101182.19;5081601;28;19978;-80
2023/06/21 05:55:33;;;;;;;;;;;;;;;27.93;49.02;101175.19;5081479;28;20283;-80
2023/06/21 05:57:58;;;;;;;;;;;;;;;27.99;49.00;101165.47;5080964;28;20038;-79
2023/06/21 06:00:24;;;;;;;;;;;;;;;28.08;49.01;101176.34;5079511;28;19927;-79
2023/06/21 06:02:49;;;;;;;;;;;;;;;28.16;48.92;101180.84;5082145;28;20543;-79
2023/06/21 06:05:16;;;;;;;;;;;;;;;28.26;48.96;101188.63;5085599;28;19916;-79
2023/06/21 06:07:41;;;;;;;;;;;;;;;28.34;48.74;101184.84;5082200;28;19920;-79
2023/06/21 06:10:07;;;;;;;;;;;;;;;28.40;48.75;101182.66;5089415;28;19916;-79
2023/06/21 06:12:33;;;;;;;;;;;;;;;28.50;48.79;101198.63;5084671;28;19927;-79
2023/06/21 06:14:58;;;;;;;;;;;;;;;28.62;48.68;101203.22;5085425;28;19973;-79
2023/06/21 06:17:24;;;;;;;;;;;;;;;28.72;48.64;101200.69;5085979;28;19916;-78
2023/06/21 06:19:49;;;;;;;;;;;;;;;28.80;48.25;101187.88;5082573;28;20003;-80
2023/06/21 06:22:14;;;;;;;;;;;;;;;28.88;48.43;101201.47;5082815;28;19916;-80
2023/06/21 06:24:40;;;;;;;;;;;;;;;28.97;47.99;101206.78;5082677;28;19919;-79
2023/06/21 06:27:05;;;;;;;;;;;;;;;29.02;48.00;101202.94;5082828;28;20367;-80
2023/06/21 06:29:31;;;;;;;;;;;;;;;29.06;47.92;101215.63;5081542;28;19923;-80
2023/06/21 06:31:56;;;;;;;;;;;;;;;29.15;47.82;101213.47;5079430;28;20338;-79
2023/06/21 06:34:21;;;;;;;;;;;;;;;29.24;48.11;101216.00;5084755;28;19916;-80
2023/06/21 06:36:47;;;;;;;;;;;;;;;29.34;47.59;101211.88;5079838;28;19922;-79
2023/06/21 06:39:13;;;;;;;;;;;;;;;29.45;47.62;101210.13;5082587;28;19916;-80
2023/06/21 06:41:38;;;;;;;;;;;;;;;29.56;47.65;101211.16;5080004;28;19960;-80
2023/06/21 06:44:04;;;;;;;;;;;;;;;29.66;47.52;101207.78;5081038;28;20544;-79
2023/06/21 06:46:29;;;;;;;;;;;;;;;29.73;47.70;101210.69;5080816;28;19916;-79
2023/06/21 06:48:54;;;;;;;;;;;;;;;29.82;47.22;101206.91;5081353;28;19986;-80
2023/06/21 06:51:20;;;;;;;;;;;;;;;29.86;47.35;101219.59;5079840;28;19919;-79
2023/06/21 06:53:47;;;;;;;;;;;;;;;29.92;46.99;101206.25;5081835;28;20364;-79
2023/06/21 06:56:13;;;;;;;;;;;;;;;29.95;47.17;101214.59;5081491;28;19958;-80
2023/06/21 06:58:38;;;;;;;;;;;;;;;29.97;46.95;101214.25;5083723;28;19955;-80
2023/06/21 07:01:05;;;;;;;;;;;;;;;30.04;46.97;101229.00;5079904;28;19961;-80
2023/06/21 07:03:30;;;;;;;;;;;;;;;30.10;46.81;101231.47;5084990;28;19942;-80
2023/06/21 07:05:55;;;;;;;;;;;;;;;30.14;46.53;101235.06;5088635;28;20045;-80
2023/06/21 07:08:21;;;;;;;;;;;;;;;30.17;46.41;101243.44;5084811;28;20299;-80
2023/06/21 07:10:46;;;;;;;;;;;;;;;30.23;46.21;101255.00;5079799;28;19916;-80
2023/06/21 07:13:11;;;;;;;;;;;;;;;30.29;46.43;101262.59;5083499;28;19934;-80
2023/06/21 07:15:37;;;;;;;;;;;;;;;30.42;46.43;101265.16;5077666;28;19967;-80
2023/06/21 07:18:02;;;;;;;;;;;;;;;30.53;45.86;101272.47;5081189;28;19956;-80
2023/06/21 07:20:27;;;;;;;;;;;;;;;30.65;45.93;101272.28;5077775;28;20265;-79
2023/06/21 07:22:53;;;;;;;;;;;;;;;30.78;45.54;101264.56;5077945;28;20330;-81
2023/06/21 07:25:18;;;;;;;;;;;;;;;30.91;45.40;101276.22;5082096;28;20335;-81
2023/06/21 07:27:43;;;;;;;;;;;;;;;31.02;45.06;101266.06;5083186;28;19920;-80
2023/06/21 07:30:09;;;;;;;;;;;;;;;31.10;45.00;101264.22;5084466;28;19940;-80
2023/06/21 07:32:35;;;;;;;;;;;;;;;31.27;44.63;101258.16;5083337;28;19925;-80
2023/06/21 07:35:01;;;;;;;;;;;;;;;31.40;44.13;101273.31;5085231;28;20504;-80
2023/06/21 07:37:27;;;;;;;;;;;;;;;31.50;44.11;101280.16;5082011;28;19916;-80
2023/06/21 07:39:52;;;;;;;;;;;;;;;31.60;43.92;101284.22;5082986;28;19928;-81
2023/06/21 07:42:18;;;;;;;;;;;;;;;31.66;43.51;101280.75;5083350;28;19920;-80
2023/06/21 07:44:43;;;;;;;;;;;;;;;31.69;43.79;101280.00;5082835;28;20292;-80
2023/06/21 07:47:09;;;;;;;;;;;;;;;31.81;43.71;101276.19;5079182;28;20061;-80
2023/06/21 07:49:34;;;;;;;;;;;;;;;31.89;43.35;101277.84;5082592;28;19986;-81
2023/06/21 07:51:59;;;;;;;;;;;;;;;31.98;43.39;101272.81;5083800;28;19920;-80
2023/06/21 07:54:24;;;;;;;;;;;;;;;32.08;42.98;101274.06;5085455;28;20041;-80
2023/06/21 07:56:50;;;;;;;;;;;;;;;32.22;43.18;101267.84;5084623;28;19924;-80
2023/06/21 07:59:15;;;;;;;;;;;;;;;32.31;43.25;101268.34;5087351;28;20401;-80
2023/06/21 08:01:40;;;;;;;;;;;;;;;32.37;42.97;101280.69;5081178;28;19931;-80
2023/06/21 08:04:06;;;;;;;;;;;;;;;32.42;42.70;101278.34;5082607;28;19924;-80
2023/06/21 08:06:31;;;;;;;;;;;;;;;32.50;42.46;101281.16;5084695;28;19924;-80
2023/06/21 08:08:56;;;;;;;;;;;;;;;32.65;42.46;101278.13;5084318;28;20549;-80
2023/06/21 08:11:22;;;;;;;;;;;;;;;32.84;42.00;101287.38;5083095;28;19916;-79
2023/06/21 08:13:47;;;;;;;;;;;;;;;32.87;42.05;101283.84;5086805;28;19920;-78
2023/06/21 08:16:12;;;;;;;;;;;;;;;32.96;41.75;101290.63;5071210;28;19920;-78
2023/06/21 08:18:38;;;;;;;;;;;;;;;33.02;41.19;101299.38;5086334;28;19924;-78
2023/06/21 08:21:07;;;;;;;;;;;;;;;33.15;41.35;101314.53;5085274;28;20507;-77
2023/06/21 08:23:33;;;;;;;;;;;;;;;33.26;41.10;101309.84;5083523;28;19924;-77
2023/06/21 08:25:58;;;;;;;;;;;;;;;33.38;40.46;101311.50;5082290;28;19925;-78
2023/06/21 08:28:23;;;;;;;;;;;;;;;33.45;40.47;101311.53;5082380;28;19920;-78
2023/06/21 08:30:48;;;;;;;;;;;;;;;33.55;40.38;101321.09;5086516;28;20449;-78
2023/06/21 08:33:14;;;;;;;;;;;;;;;33.66;40.33;101313.59;5084147;28;20344;-78
2023/06/21 08:35:39;;;;;;;;;;;;;;;33.76;40.25;101329.50;5085022;28;20102;-79
2023/06/21 08:38:04;;;;;;;;;;;;;;;33.86;40.13;101325.19;5081342;28;20399;-80
2023/06/21 08:40:31;;;;;;;;;;;;;;;33.86;39.80;101334.31;5083672;28;19916;-79
2023/06/21 08:42:57;;;;;;;;;;;;;;;33.99;39.93;101340.31;5082697;28;19923;-79
2023/06/21 08:45:22;;;;;;;;;;;;;;;34.16;39.84;101335.97;5086148;28;19916;-79
2023/06/21 08:47:48;;;;;;;;;;;;;;;34.30;39.53;101347.13;5082812;28;20395;-78
2023/06/21 08:50:16;;;;;;;;;;;;;;;34.43;39.60;101355.88;5082737;28;19919;-79
2023/06/21 08:52:43;;;;;;;;;;;;;;;34.50;39.37;101353.91;5082994;28;20020;-79
2023/06/21 08:55:09;;;;;;;;;;;;;;;34.53;38.95;101378.16;5086953;28;19919;-79
2023/06/21 08:57:38;;;;;;;;;;;;;;;34.56;38.99;101371.00;5080640;28;20387;-78
2023/06/21 09:00:05;;;;;;;;;;;;;;;34.57;38.94;101369.81;5082181;28;19920;-78
2023/06/21 09:02:35;;;;;;;;;;;;;;;34.60;38.50;101380.13;5082147;28;19919;-80
2023/06/21 09:05:03;;;;;;;;;;;;;;;34.65;38.74;101385.31;5084555;28;19923;-78
2023/06/21 09:07:29;;;;;;;;;;;;;;;34.65;37.79;101382.53;5085361;28;19924;-78
2023/06/21 09:09:56;;;;;;;;;;;;;;;34.68;38.54;101394.84;5081469;28;19928;-78
2023/06/21 09:12:21;;;;;;;;;;;;;;;34.74;37.88;101401.59;5078658;28;19916;-78
2023/06/21 09:14:47;;;;;;;;;;;;;;;34.75;37.80;101397.63;5078958;28;19970;-76
2023/06/21 09:17:13;;;;;;;;;;;;;;;34.71;37.93;101397.63;5080663;28;19981;-78
2023/06/21 09:19:38;;;;;;;;;;;;;;;34.79;37.98;101388.06;5076660;28;19963;-78
2023/06/21 09:22:04;;;;;;;;;;;;;;;34.88;37.53;101396.06;5082136;28;19926;-77
2023/06/21 09:24:29;;;;;;;;;;;;;;;34.96;37.59;101394.84;5080475;28;19919;-78
2023/06/21 09:26:54;;;;;;;;;;;;;;;35.13;37.93;101382.91;5079596;28;19920;-78
2023/06/21 09:29:20;;;;;;;;;;;;;;;35.33;37.90;101390.81;5079037;28;19959;-77
2023/06/21 09:31:45;;;;;;;;;;;;;;;35.47;37.31;101379.66;5079091;28;19968;-77
2023/06/21 09:34:10;;;;;;;;;;;;;;;35.59;36.82;101389.56;5080572;28;19925;-77
2023/06/21 09:36:36;;;;;;;;;;;;;;;35.55;36.69;101400.72;5082181;28;20011;-77
2023/06/21 09:39:08;;;;;;;;;;;;;;;35.51;36.70;101383.22;5079641;28;19924;-77
2023/06/21 09:41:34;;;;;;;;;;;;;;;35.61;37.14;101387.97;5077387;28;19931;-77
2023/06/21 09:43:59;;;;;;;;;;;;;;;35.78;36.57;101379.94;5077817;28;19921;-77
2023/06/21 09:46:25;;;;;;;;;;;;;;;35.88;36.08;101384.66;5079854;28;19920;-77
2023/06/21 09:48:50;;;;;;;;;;;;;;;35.95;36.21;101395.81;5063325;28;19931;-77
2023/06/21 09:51:17;;;;;;;;;;;;;;;35.88;36.35;101398.59;5078632;28;19921;-79
2023/06/21 09:53:43;;;;;;;;;;;;;;;35.87;36.47;101395.03;5080198;28;20011;-79
2023/06/21 09:56:08;;;;;;;;;;;;;;;35.87;36.45;101391.44;5086860;28;20719;-79
2023/06/21 09:58:34;;;;;;;;;;;;;;;35.85;35.50;101389.06;5080707;28;19920;-79
2023/06/21 10:01:04;;;;;;;;;;;;;;;35.77;36.53;101387.50;5081834;28;19916;-78
2023/06/21 10:03:30;;;;;;;;;;;;;;;35.79;36.66;101390.66;5083147;28;19924;-78
2023/06/21 10:05:56;;;;;;;;;;;;;;;35.88;35.95;101396.63;5077152;28;19926;-78
2023/06/21 10:08:49;;;;;;;;;;;;;;;35.98;36.37;101398.56;5075610;28;19923;-78
2023/06/21 10:11:17;;;;;;;;;;;;;;;36.07;35.78;101400.09;5074591;28;19916;-78
2023/06/21 10:13:43;;;;;;;;;;;;;;;36.03;35.95;101397.34;5078708;28;19916;-77
2023/06/21 10:16:08;;;;;;;;;;;;;;;35.99;35.32;101399.34;5078142;28;19980;-78
2023/06/21 10:18:34;;;;;;;;;;;;;;;36.11;35.64;101412.84;5076729;28;19931;-77
2023/06/21 10:21:05;;;;;;;;;;;;;;;36.20;35.67;101410.38;5077270;28;19927;-78
2023/06/21 10:23:31;;;;;;;;;;;;;;;36.28;35.64;101409.16;5079806;28;20403;-76
2023/06/21 10:26:02;;;;;;;;;;;;;;;36.28;34.95;101417.53;5080249;28;19930;-77
2023/06/21 10:28:30;;;;;;;;;;;;;;;36.22;35.43;101407.97;5076423;28;19990;-77
2023/06/21 10:30:58;;;;;;;;;;;;;;;36.22;35.13;101421.94;5079414;28;19920;-78
2023/06/21 10:33:24;;;;;;;;;;;;;;;36.13;35.50;101418.00;5078660;28;20589;-77
2023/06/21 10:35:51;;;;;;;;;;;;;;;36.08;35.87;101429.56;5080043;28;19920;-77
2023/06/21 10:38:16;;;;;;;;;;;;;;;36.05;35.48;101422.03;5080348;28;19919;-78
2023/06/21 10:40:42;;;;;;;;;;;;;;;36.04;35.56;101426.81;5074694;28;19924;-78
2023/06/21 10:43:08;;;;;;;;;;;;;;;36.03;35.70;101428.00;5073823;28;20449;-78
2023/06/21 10:45:33;;;;;;;;;;;;;;;36.01;35.51;101433.22;5079522;28;19977;-77
2023/06/21 10:47:59;;;;;;;;;;;;;;;36.08;35.36;101435.16;5074850;28;19936;-77
2023/06/21 10:50:24;;;;;;;;;;;;;;;36.18;35.21;101425.94;5078257;28;20371;-77
2023/06/21 10:52:52;;;;;;;;;;;;;;;36.26;35.23;101421.91;5074940;28;19916;-78
2023/06/21 10:55:19;;;;;;;;;;;;;;;36.23;34.33;101422.72;5074064;28;20097;-76
2023/06/21 10:57:45;;;;;;;;;;;;;;;36.29;35.20;101429.47;5075806;28;19920;-77
2023/06/21 11:00:11;;;;;;;;;;;;;;;36.37;34.89;101427.44;5073793;28;20299;-79
2023/06/21 11:02:37;;;;;;;;;;;;;;;36.20;34.81;101434.69;5052193;28;19919;-78
2023/06/21 11:05:14;;;;;;;;;;;;;;;36.01;34.33;101439.56;5068859;28;19916;-77
2023/06/21 11:07:49;;;;;;;;;;;;;;;36.07;34.87;101437.16;5076086;28;19928;-78
2023/06/21 11:10:15;;;;;;;;;;;;;;;36.25;34.99;101446.22;5069858;28;20686;-78
2023/06/21 11:12:40;;;;;;;;;;;;;;;36.28;33.93;101437.06;5074839;28;19921;-79
2023/06/21 11:15:06;;;;;;;;;;;;;;;36.15;34.04;101438.72;5069454;28;19955;-77
2023/06/21 11:17:34;;;;;;;;;;;;;;;36.11;34.81;101445.53;5076554;28;19920;-78
2023/06/21 11:20:17;;;;;;;;;;;;;;;36.10;34.55;101433.56;5073139;28;19928;-77
2023/06/21 11:22:53;;;;;;;;;;;;;;;36.21;34.89;101425.91;5076765;28;19923;-77
2023/06/21 11:25:19;;;;;;;;;;;;;;;36.37;34.84;101425.44;5072586;28;19924;-77
2023/06/21 11:28:04;;;;;;;;;;;;;;;36.54;34.72;101421.75;5075104;28;19931;-77
2023/06/21 11:30:31;;;;;;;;;;;;;;;36.74;34.51;101433.16;5073217;28;19924;-77
2023/06/21 11:32:56;;;;;;;;;;;;;;;36.85;34.33;101421.94;5076002;28;19916;-78
2023/06/21 11:35:35;;;;;;;;;;;;;;;36.98;34.11;101424.97;5073033;28;19927;-78
2023/06/21 11:38:00;;;;;;;;;;;;;;;37.13;32.98;101430.03;5072491;28;20042;-77
2023/06/21 11:40:27;;;;;;;;;;;;;;;37.15;33.20;101426.81;5074165;28;20448;-78
2023/06/21 11:42:52;;;;;;;;;;;;;;;37.15;33.49;101429.59;5073098;28;19919;-77
2023/06/21 11:45:17;;;;;;;;;;;;;;;37.18;33.52;101434.38;5076770;28;19932;-77
2023/06/21 11:48:03;;;;;;;;;;;;;;;37.25;33.82;101436.31;5075073;28;20478;-77
2023/06/21 11:50:33;;;;;;;;;;;;;;;37.11;33.74;101438.03;5058117;28;19920;-78
2023/06/21 11:53:11;;;;;;;;;;;;;;;36.88;34.04;101446.22;5074241;28;19967;-77
2023/06/21 11:55:37;;;;;;;;;;;;;;;36.65;33.97;101438.41;5070983;28;19927;-78
2023/06/21 11:58:02;;;;;;;;;;;;;;;36.51;34.09;101441.31;5069777;28;19921;-77
2023/06/21 12:00:28;;;;;;;;;;;;;;;36.35;34.40;101454.97;5077840;28;19971;-77
2023/06/21 12:02:54;;;;;;;;;;;;;;;36.11;35.00;101468.63;5077854;28;20498;-79
2023/06/21 12:05:19;;;;;;;;;;;;;;;35.91;35.47;101484.22;5077207;28;19925;-79
2023/06/21 12:07:44;;;;;;;;;;;;;;;35.61;35.98;101491.09;5077195;28;19931;-79
2023/06/21 12:10:11;;;;;;;;;;;;;;;35.37;36.77;101476.03;5078968;28;20292;-79
2023/06/21 12:12:36;;;;;;;;;;;;;;;35.30;36.92;101475.19;5076870;28;19919;-80
2023/06/21 12:15:01;;;;;;;;;;;;;;;35.32;37.03;101473.59;5080208;28;19973;-79
2023/06/21 12:17:27;;;;;;;;;;;;;;;35.29;36.68;101466.03;5075572;28;20030;-78
2023/06/21 12:19:52;;;;;;;;;;;;;;;35.26;37.05;101474.41;5076992;28;19920;-78
2023/06/21 12:22:20;;;;;;;;;;;;;;;35.24;37.00;101479.56;5074433;28;19931;-78
2023/06/21 12:24:45;;;;;;;;;;;;;;;35.24;37.59;101477.59;5075441;28;20008;-78
2023/06/21 12:27:14;;;;;;;;;;;;;;;35.28;37.28;101470.00;5079117;28;19919;-78
2023/06/21 12:29:46;;;;;;;;;;;;;;;35.34;37.41;101467.59;5082048;28;19954;-78
2023/06/21 12:32:11;;;;;;;;;;;;;;;35.38;38.08;101482.38;5076287;28;19924;-78